sensor_id;sensor_type;location;lat;lon;timestamp;pressure;altitude;pressure_sealevel;temperature;humidity
67430;BME280;54298;52.076;5.264;2023-07-16T00:03:03;100726.0;;;19.18;56.85
67430;BME280;54298;52.076;5.264;2023-07-16T00:04:40;100726.0;;;19.12;56.95
67430;BME280;54298;52.076;5.264;2023-07-16T00:06:16;100731.0;;;19.07;56.88
67430;BME280;54298;52.076;5.264;2023-07-16T00:09:28;100730.0;;;18.97;56.79
67430;BME280;54298;52.076;5.264;2023-07-16T00:11:05;100732.0;;;18.95;56.58
67430;BME280;54298;52.076;5.264;2023-07-16T00:12:42;100727.0;;;19.02;56.44
67430;BME280;54298;52.076;5.264;2023-07-16T00:14:19;100720.0;;;19.06;56.48
67430;BME280;54298;52.076;5.264;2023-07-16T00:17:33;100717.0;;;19.02;56.23
67430;BME280;54298;52.076;5.264;2023-07-16T00:19:10;100725.0;;;18.89;56.54
67430;BME280;54298;52.076;5.264;2023-07-16T00:20:47;100717.0;;;18.97;56.36
67430;BME280;54298;52.076;5.264;2023-07-16T00:24:00;100720.0;;;19.0;56.38
67430;BME280;54298;52.076;5.264;2023-07-16T00:25:37;100721.0;;;18.96;56.34
67430;BME280;54298;52.076;5.264;2023-07-16T00:27:14;100720.0;;;18.93;56.21
67430;BME280;54298;52.076;5.264;2023-07-16T00:28:51;100734.0;;;18.91;56.28
67430;BME280;54298;52.076;5.264;2023-07-16T00:32:04;100730.0;;;18.8;56.53
67430;BME280;54298;52.076;5.264;2023-07-16T00:33:41;100726.0;;;19.02;56.4
67430;BME280;54298;52.076;5.264;2023-07-16T00:35:17;100718.0;;;19.04;56.17
67430;BME280;54298;52.076;5.264;2023-07-16T00:38:30;100724.0;;;19.02;56.69
67430;BME280;54298;52.076;5.264;2023-07-16T00:40:08;100730.0;;;19.09;56.28
67430;BME280;54298;52.076;5.264;2023-07-16T00:41:44;100731.0;;;19.16;56.02
67430;BME280;54298;52.076;5.264;2023-07-16T00:44:58;100730.0;;;19.02;56.45
67430;BME280;54298;52.076;5.264;2023-07-16T00:46:36;100734.0;;;19.0;56.5
67430;BME280;54298;52.076;5.264;2023-07-16T00:48:13;100736.0;;;18.84;56.65
67430;BME280;54298;52.076;5.264;2023-07-16T00:49:50;100738.0;;;18.89;56.77
67430;BME280;54298;52.076;5.264;2023-07-16T00:53:04;100740.0;;;19.03;56.5
67430;BME280;54298;52.076;5.264;2023-07-16T00:54:41;100742.0;;;19.04;56.27
67430;BME280;54298;52.076;5.264;2023-07-16T00:56:18;100748.0;;;18.96;56.64
67430;BME280;54298;52.076;5.264;2023-07-16T00:59:38;100746.0;;;18.93;56.65
67430;BME280;54298;52.076;5.264;2023-07-16T01:01:15;100748.0;;;19.03;56.65
67430;BME280;54298;52.076;5.264;2023-07-16T01:02:51;100752.0;;;18.93;56.83
67430;BME280;54298;52.076;5.264;2023-07-16T01:04:28;100747.0;;;18.89;56.94
67430;BME280;54298;52.076;5.264;2023-07-16T01:07:55;100748.0;;;18.75;57.36
67430;BME280;54298;52.076;5.264;2023-07-16T01:09:34;100746.0;;;18.79;57.15
67430;BME280;54298;52.076;5.264;2023-07-16T01:11:17;100743.0;;;18.84;57.32
67430;BME280;54298;52.076;5.264;2023-07-16T01:12:56;100740.0;;;18.84;57.15
67430;BME280;54298;52.076;5.264;2023-07-16T01:16:18;100740.0;;;18.8;57.35
67430;BME280;54298;52.076;5.264;2023-07-16T01:17:54;100745.0;;;18.77;57.52
67430;BME280;54298;52.076;5.264;2023-07-16T01:19:32;100736.0;;;18.79;57.8
67430;BME280;54298;52.076;5.264;2023-07-16T01:21:09;100739.0;;;18.64;58.09
67430;BME280;54298;52.076;5.264;2023-07-16T01:27:21;100741.0;;;18.66;57.87
67430;BME280;54298;52.076;5.264;2023-07-16T01:29:28;100740.0;;;18.73;57.85
67430;BME280;54298;52.076;5.264;2023-07-16T01:31:05;100741.0;;;18.73;57.92
67430;BME280;54298;52.076;5.264;2023-07-16T01:32:45;100732.0;;;18.72;57.87
67430;BME280;54298;52.076;5.264;2023-07-16T01:34:24;100737.0;;;18.66;57.99
67430;BME280;54298;52.076;5.264;2023-07-16T01:36:02;100735.0;;;18.61;58.29
67430;BME280;54298;52.076;5.264;2023-07-16T01:39:17;100733.0;;;18.71;57.85
67430;BME280;54298;52.076;5.264;2023-07-16T01:40:53;100733.0;;;18.68;58.11
67430;BME280;54298;52.076;5.264;2023-07-16T01:42:30;100734.0;;;18.63;58.32
67430;BME280;54298;52.076;5.264;2023-07-16T01:45:42;100734.0;;;18.72;58.26
67430;BME280;54298;52.076;5.264;2023-07-16T01:47:24;100745.0;;;18.73;58.36
67430;BME280;54298;52.076;5.264;2023-07-16T01:49:07;100740.0;;;18.66;58.35
67430;BME280;54298;52.076;5.264;2023-07-16T01:50:43;100737.0;;;18.64;58.49
67430;BME280;54298;52.076;5.264;2023-07-16T01:53:58;100734.0;;;18.75;58.49
67430;BME280;54298;52.076;5.264;2023-07-16T01:55:35;100740.0;;;18.57;59.08
67430;BME280;54298;52.076;5.264;2023-07-16T01:57:11;100743.0;;;18.75;58.7
67430;BME280;54298;52.076;5.264;2023-07-16T02:00:24;100744.0;;;18.61;59.05
67430;BME280;54298;52.076;5.264;2023-07-16T02:02:01;100750.0;;;18.61;59.01
67430;BME280;54298;52.076;5.264;2023-07-16T02:03:39;100745.0;;;18.55;59.26
67430;BME280;54298;52.076;5.264;2023-07-16T02:05:16;100742.0;;;18.66;59.35
67430;BME280;54298;52.076;5.264;2023-07-16T02:08:28;100744.0;;;18.66;59.31
67430;BME280;54298;52.076;5.264;2023-07-16T02:10:06;100741.0;;;18.59;59.61
67430;BME280;54298;52.076;5.264;2023-07-16T02:11:42;100744.0;;;18.68;59.23
67430;BME280;54298;52.076;5.264;2023-07-16T02:14:56;100743.0;;;18.59;59.62
67430;BME280;54298;52.076;5.264;2023-07-16T02:16:32;100749.0;;;18.68;59.47
67430;BME280;54298;52.076;5.264;2023-07-16T02:18:09;100743.0;;;18.64;59.7
67430;BME280;54298;52.076;5.264;2023-07-16T02:19:46;100745.0;;;18.66;59.64
67430;BME280;54298;52.076;5.264;2023-07-16T02:22:59;100749.0;;;18.7;59.69
67430;BME280;54298;52.076;5.264;2023-07-16T02:24:36;100741.0;;;18.63;60.09
67430;BME280;54298;52.076;5.264;2023-07-16T02:26:12;100743.0;;;18.66;60.04
67430;BME280;54298;52.076;5.264;2023-07-16T02:29:25;100744.0;;;18.75;59.97
67430;BME280;54298;52.076;5.264;2023-07-16T02:31:02;100745.0;;;18.75;59.89
67430;BME280;54298;52.076;5.264;2023-07-16T02:32:39;100745.0;;;18.7;60.21
67430;BME280;54298;52.076;5.264;2023-07-16T02:35:52;100747.0;;;18.81;60.0
67430;BME280;54298;52.076;5.264;2023-07-16T02:37:28;100746.0;;;18.75;60.1
67430;BME280;54298;52.076;5.264;2023-07-16T02:39:05;100752.0;;;18.77;60.15
67430;BME280;54298;52.076;5.264;2023-07-16T02:40:43;100749.0;;;18.87;59.8
67430;BME280;54298;52.076;5.264;2023-07-16T02:44:01;100747.0;;;18.8;59.98
67430;BME280;54298;52.076;5.264;2023-07-16T02:45:37;100745.0;;;18.87;60.02
67430;BME280;54298;52.076;5.264;2023-07-16T02:47:14;100746.0;;;18.72;60.46
67430;BME280;54298;52.076;5.264;2023-07-16T02:50:28;100745.0;;;18.91;59.93
67430;BME280;54298;52.076;5.264;2023-07-16T02:52:06;100748.0;;;18.82;60.09
67430;BME280;54298;52.076;5.264;2023-07-16T02:53:42;100749.0;;;18.84;60.13
67430;BME280;54298;52.076;5.264;2023-07-16T02:55:19;100744.0;;;18.77;60.24
67430;BME280;54298;52.076;5.264;2023-07-16T02:58:34;100753.0;;;18.89;60.14
67430;BME280;54298;52.076;5.264;2023-07-16T03:00:12;100756.0;;;18.61;60.64
67430;BME280;54298;52.076;5.264;2023-07-16T03:01:48;100757.0;;;18.57;60.71
67430;BME280;54298;52.076;5.264;2023-07-16T03:05:02;100755.0;;;18.68;60.5
67430;BME280;54298;52.076;5.264;2023-07-16T03:06:39;100760.0;;;18.73;60.32
67430;BME280;54298;52.076;5.264;2023-07-16T03:08:15;100759.0;;;18.62;60.84
67430;BME280;54298;52.076;5.264;2023-07-16T03:11:28;100758.0;;;18.57;60.76
67430;BME280;54298;52.076;5.264;2023-07-16T03:13:05;100758.0;;;18.62;61.03
67430;BME280;54298;52.076;5.264;2023-07-16T03:14:42;100760.0;;;18.32;61.33
67430;BME280;54298;52.076;5.264;2023-07-16T03:16:19;100758.0;;;18.57;61.08
67430;BME280;54298;52.076;5.264;2023-07-16T03:19:32;100760.0;;;18.5;61.07
67430;BME280;54298;52.076;5.264;2023-07-16T03:21:09;100755.0;;;18.39;61.26
67430;BME280;54298;52.076;5.264;2023-07-16T03:22:46;100755.0;;;18.54;61.21
67430;BME280;54298;52.076;5.264;2023-07-16T03:25:59;100760.0;;;18.53;61.03
67430;BME280;54298;52.076;5.264;2023-07-16T03:27:36;100762.0;;;18.52;61.04
67430;BME280;54298;52.076;5.264;2023-07-16T03:29:13;100759.0;;;18.55;61.04
67430;BME280;54298;52.076;5.264;2023-07-16T03:30:51;100759.0;;;18.45;61.36
67430;BME280;54298;52.076;5.264;2023-07-16T03:34:04;100762.0;;;18.34;61.65
67430;BME280;54298;52.076;5.264;2023-07-16T03:35:42;100763.0;;;18.34;61.6
67430;BME280;54298;52.076;5.264;2023-07-16T03:37:18;100766.0;;;18.25;61.85
67430;BME280;54298;52.076;5.264;2023-07-16T03:40:32;100764.0;;;18.27;61.95
67430;BME280;54298;52.076;5.264;2023-07-16T03:42:09;100768.0;;;18.12;61.99
67430;BME280;54298;52.076;5.264;2023-07-16T03:43:45;100774.0;;;18.27;61.59
67430;BME280;54298;52.076;5.264;2023-07-16T03:46:59;100780.0;;;18.09;62.09
67430;BME280;54298;52.076;5.264;2023-07-16T03:48:35;100787.0;;;18.06;62.18
67430;BME280;54298;52.076;5.264;2023-07-16T03:50:13;100780.0;;;18.06;62.04
67430;BME280;54298;52.076;5.264;2023-07-16T03:51:49;100786.0;;;18.02;62.15
67430;BME280;54298;52.076;5.264;2023-07-16T03:55:03;100788.0;;;18.03;61.84
67430;BME280;54298;52.076;5.264;2023-07-16T03:56:39;100788.0;;;18.03;61.95
67430;BME280;54298;52.076;5.264;2023-07-16T03:58:15;100790.0;;;18.0;62.15
67430;BME280;54298;52.076;5.264;2023-07-16T04:01:28;100796.0;;;17.93;62.42
67430;BME280;54298;52.076;5.264;2023-07-16T04:03:05;100800.0;;;17.96;62.29
67430;BME280;54298;52.076;5.264;2023-07-16T04:04:41;100808.0;;;17.95;62.5
67430;BME280;54298;52.076;5.264;2023-07-16T04:07:54;100807.0;;;17.98;62.32
67430;BME280;54298;52.076;5.264;2023-07-16T04:09:30;100807.0;;;18.02;62.43
67430;BME280;54298;52.076;5.264;2023-07-16T04:11:06;100806.0;;;18.04;62.11
67430;BME280;54298;52.076;5.264;2023-07-16T04:12:43;100803.0;;;17.93;62.4
67430;BME280;54298;52.076;5.264;2023-07-16T04:15:58;100806.0;;;17.87;62.53
67430;BME280;54298;52.076;5.264;2023-07-16T04:17:35;100808.0;;;18.0;62.32
67430;BME280;54298;52.076;5.264;2023-07-16T04:19:11;100806.0;;;17.97;62.35
67430;BME280;54298;52.076;5.264;2023-07-16T04:22:25;100813.0;;;17.97;62.15
67430;BME280;54298;52.076;5.264;2023-07-16T04:24:02;100810.0;;;18.0;62.06
67430;BME280;54298;52.076;5.264;2023-07-16T04:25:39;100812.0;;;18.02;62.07
67430;BME280;54298;52.076;5.264;2023-07-16T04:28:53;100821.0;;;18.0;62.37
67430;BME280;54298;52.076;5.264;2023-07-16T04:30:30;100816.0;;;17.95;62.06
67430;BME280;54298;52.076;5.264;2023-07-16T04:32:08;100819.0;;;17.98;61.85
67430;BME280;54298;52.076;5.264;2023-07-16T04:33:45;100817.0;;;18.05;61.63
67430;BME280;54298;52.076;5.264;2023-07-16T04:36:59;100826.0;;;17.95;61.45
67430;BME280;54298;52.076;5.264;2023-07-16T04:38:35;100830.0;;;18.0;61.5
67430;BME280;54298;52.076;5.264;2023-07-16T04:40:11;100833.0;;;18.09;61.14
67430;BME280;54298;52.076;5.264;2023-07-16T04:43:25;100835.0;;;18.03;61.17
67430;BME280;54298;52.076;5.264;2023-07-16T04:45:01;100844.0;;;18.04;61.11
67430;BME280;54298;52.076;5.264;2023-07-16T04:46:38;100842.0;;;18.05;61.03
67430;BME280;54298;52.076;5.264;2023-07-16T04:48:14;100845.0;;;18.16;60.58
67430;BME280;54298;52.076;5.264;2023-07-16T04:51:27;100848.0;;;18.16;60.44
67430;BME280;54298;52.076;5.264;2023-07-16T04:53:04;100846.0;;;18.16;60.53
67430;BME280;54298;52.076;5.264;2023-07-16T04:54:41;100844.0;;;18.22;60.12
67430;BME280;54298;52.076;5.264;2023-07-16T04:57:54;100841.0;;;18.09;60.27
67430;BME280;54298;52.076;5.264;2023-07-16T04:59:31;100844.0;;;18.32;59.82
67430;BME280;54298;52.076;5.264;2023-07-16T05:01:08;100842.0;;;18.25;59.82
67430;BME280;54298;52.076;5.264;2023-07-16T05:04:22;100842.0;;;18.25;59.77
67430;BME280;54298;52.076;5.264;2023-07-16T05:05:58;100845.0;;;18.18;59.67
67430;BME280;54298;52.076;5.264;2023-07-16T05:07:35;100847.0;;;18.2;59.46
67430;BME280;54298;52.076;5.264;2023-07-16T05:09:11;100848.0;;;18.32;59.41
67430;BME280;54298;52.076;5.264;2023-07-16T05:12:25;100848.0;;;18.34;59.16
67430;BME280;54298;52.076;5.264;2023-07-16T05:14:02;100842.0;;;18.18;59.31
67430;BME280;54298;52.076;5.264;2023-07-16T05:15:38;100846.0;;;18.31;59.11
67430;BME280;54298;52.076;5.264;2023-07-16T05:18:52;100855.0;;;18.25;58.95
67430;BME280;54298;52.076;5.264;2023-07-16T05:20:28;100847.0;;;18.34;58.82
67430;BME280;54298;52.076;5.264;2023-07-16T05:22:05;100849.0;;;18.27;58.87
67430;BME280;54298;52.076;5.264;2023-07-16T05:25:19;100857.0;;;18.32;58.57
67430;BME280;54298;52.076;5.264;2023-07-16T05:26:56;100855.0;;;18.39;58.21
67430;BME280;54298;52.076;5.264;2023-07-16T05:28:32;100856.0;;;18.31;58.37
67430;BME280;54298;52.076;5.264;2023-07-16T05:30:09;100864.0;;;18.34;58.43
67430;BME280;54298;52.076;5.264;2023-07-16T05:33:22;100853.0;;;18.37;58.24
67430;BME280;54298;52.076;5.264;2023-07-16T05:34:58;100866.0;;;18.46;58.18
67430;BME280;54298;52.076;5.264;2023-07-16T05:36:34;100876.0;;;18.43;57.67
67430;BME280;54298;52.076;5.264;2023-07-16T05:39:48;100872.0;;;18.38;57.75
67430;BME280;54298;52.076;5.264;2023-07-16T05:41:24;100893.0;;;18.41;57.86
67430;BME280;54298;52.076;5.264;2023-07-16T05:43:01;100877.0;;;18.5;57.8
67430;BME280;54298;52.076;5.264;2023-07-16T05:46:15;100893.0;;;18.59;57.7
67430;BME280;54298;52.076;5.264;2023-07-16T05:47:53;100885.0;;;18.56;57.64
67430;BME280;54298;52.076;5.264;2023-07-16T05:49:29;100892.0;;;18.52;57.64
67430;BME280;54298;52.076;5.264;2023-07-16T05:51:05;100895.0;;;18.59;57.66
67430;BME280;54298;52.076;5.264;2023-07-16T05:54:18;100897.0;;;18.66;57.71
67430;BME280;54298;52.076;5.264;2023-07-16T05:55:54;100899.0;;;18.72;57.37
67430;BME280;54298;52.076;5.264;2023-07-16T05:57:31;100892.0;;;18.72;57.62
67430;BME280;54298;52.076;5.264;2023-07-16T06:00:44;100898.0;;;18.73;57.48
67430;BME280;54298;52.076;5.264;2023-07-16T06:02:21;100900.0;;;18.73;57.53
67430;BME280;54298;52.076;5.264;2023-07-16T06:03:59;100902.0;;;18.77;57.79
67430;BME280;54298;52.076;5.264;2023-07-16T06:07:13;100905.0;;;18.84;57.6
67430;BME280;54298;52.076;5.264;2023-07-16T06:08:49;100905.0;;;18.78;57.68
67430;BME280;54298;52.076;5.264;2023-07-16T06:10:26;100908.0;;;18.75;57.62
67430;BME280;54298;52.076;5.264;2023-07-16T06:12:04;100914.0;;;18.71;57.95
67430;BME280;54298;52.076;5.264;2023-07-16T06:15:17;100910.0;;;18.78;57.99
67430;BME280;54298;52.076;5.264;2023-07-16T06:18:30;100908.0;;;18.73;58.2
67430;BME280;54298;52.076;5.264;2023-07-16T06:21:44;100920.0;;;18.86;57.87
67430;BME280;54298;52.076;5.264;2023-07-16T06:23:21;100918.0;;;18.86;58.07
67430;BME280;54298;52.076;5.264;2023-07-16T06:24:57;100917.0;;;18.95;58.04
67430;BME280;54298;52.076;5.264;2023-07-16T06:26:33;100920.0;;;18.95;57.79
67430;BME280;54298;52.076;5.264;2023-07-16T06:29:46;100915.0;;;18.97;57.84
67430;BME280;54298;52.076;5.264;2023-07-16T06:31:23;100905.0;;;19.02;57.9
67430;BME280;54298;52.076;5.264;2023-07-16T06:32:59;100919.0;;;18.95;57.88
67430;BME280;54298;52.076;5.264;2023-07-16T06:36:12;100920.0;;;18.97;57.97
67430;BME280;54298;52.076;5.264;2023-07-16T06:37:49;100920.0;;;18.97;57.72
67430;BME280;54298;52.076;5.264;2023-07-16T06:39:26;100910.0;;;18.95;58.02
67430;BME280;54298;52.076;5.264;2023-07-16T06:42:40;100907.0;;;19.07;57.98
67430;BME280;54298;52.076;5.264;2023-07-16T06:44:17;100911.0;;;19.06;58.11
67430;BME280;54298;52.076;5.264;2023-07-16T06:45:53;100926.0;;;19.18;58.08
67430;BME280;54298;52.076;5.264;2023-07-16T06:47:30;100933.0;;;19.14;57.82
67430;BME280;54298;52.076;5.264;2023-07-16T06:50:44;100930.0;;;19.23;57.68
67430;BME280;54298;52.076;5.264;2023-07-16T06:52:21;100932.0;;;19.27;57.56
67430;BME280;54298;52.076;5.264;2023-07-16T06:53:58;100931.0;;;19.3;57.58
67430;BME280;54298;52.076;5.264;2023-07-16T06:57:13;100928.0;;;19.34;57.89
67430;BME280;54298;52.076;5.264;2023-07-16T06:58:50;100933.0;;;19.45;57.43
67430;BME280;54298;52.076;5.264;2023-07-16T07:00:26;100938.0;;;19.55;57.48
67430;BME280;54298;52.076;5.264;2023-07-16T07:03:41;100952.0;;;19.5;57.26
67430;BME280;54298;52.076;5.264;2023-07-16T07:05:19;100956.0;;;19.47;57.07
67430;BME280;54298;52.076;5.264;2023-07-16T07:06:56;100951.0;;;19.57;57.0
67430;BME280;54298;52.076;5.264;2023-07-16T07:08:33;100955.0;;;19.54;57.01
67430;BME280;54298;52.076;5.264;2023-07-16T07:11:47;100959.0;;;19.75;56.8
67430;BME280;54298;52.076;5.264;2023-07-16T07:13:24;100948.0;;;19.84;56.63
67430;BME280;54298;52.076;5.264;2023-07-16T07:15:01;100949.0;;;19.91;56.46
67430;BME280;54298;52.076;5.264;2023-07-16T07:18:13;100964.0;;;19.8;56.5
67430;BME280;54298;52.076;5.264;2023-07-16T07:19:49;100960.0;;;19.61;56.76
67430;BME280;54298;52.076;5.264;2023-07-16T07:21:25;100962.0;;;19.8;56.71
67430;BME280;54298;52.076;5.264;2023-07-16T07:23:02;100972.0;;;19.86;56.88
67430;BME280;54298;52.076;5.264;2023-07-16T07:26:15;100977.0;;;19.84;56.75
67430;BME280;54298;52.076;5.264;2023-07-16T07:27:51;100973.0;;;19.84;56.74
67430;BME280;54298;52.076;5.264;2023-07-16T07:29:28;100976.0;;;19.91;56.88
67430;BME280;54298;52.076;5.264;2023-07-16T07:32:41;100989.0;;;20.0;56.65
67430;BME280;54298;52.076;5.264;2023-07-16T07:34:17;100974.0;;;20.06;56.46
67430;BME280;54298;52.076;5.264;2023-07-16T07:35:53;100983.0;;;20.12;56.25
67430;BME280;54298;52.076;5.264;2023-07-16T07:39:07;100982.0;;;20.2;56.45
67430;BME280;54298;52.076;5.264;2023-07-16T07:40:44;100983.0;;;20.27;56.38
67430;BME280;54298;52.076;5.264;2023-07-16T07:42:20;100986.0;;;20.23;55.75
67430;BME280;54298;52.076;5.264;2023-07-16T07:43:56;101007.0;;;20.21;55.8
67430;BME280;54298;52.076;5.264;2023-07-16T07:47:09;100985.0;;;20.16;56.06
67430;BME280;54298;52.076;5.264;2023-07-16T07:48:46;101006.0;;;20.04;56.4
67430;BME280;54298;52.076;5.264;2023-07-16T07:50:23;101003.0;;;19.93;56.72
67430;BME280;54298;52.076;5.264;2023-07-16T07:53:35;100993.0;;;19.91;57.04
67430;BME280;54298;52.076;5.264;2023-07-16T07:55:12;101001.0;;;19.88;56.91
67430;BME280;54298;52.076;5.264;2023-07-16T07:56:48;100991.0;;;19.91;56.88
67430;BME280;54298;52.076;5.264;2023-07-16T08:00:01;100997.0;;;20.0;56.92
67430;BME280;54298;52.076;5.264;2023-07-16T08:01:38;100989.0;;;19.93;56.93
67430;BME280;54298;52.076;5.264;2023-07-16T08:03:15;100992.0;;;19.97;57.11
67430;BME280;54298;52.076;5.264;2023-07-16T08:04:53;101006.0;;;20.11;57.02
67430;BME280;54298;52.076;5.264;2023-07-16T08:08:08;101018.0;;;20.11;56.81
67430;BME280;54298;52.076;5.264;2023-07-16T08:09:45;101006.0;;;19.93;56.99
67430;BME280;54298;52.076;5.264;2023-07-16T08:11:22;101009.0;;;19.89;57.4
67430;BME280;54298;52.076;5.264;2023-07-16T08:14:37;101020.0;;;19.95;57.43
67430;BME280;54298;52.076;5.264;2023-07-16T08:16:15;101016.0;;;19.97;57.31
67430;BME280;54298;52.076;5.264;2023-07-16T08:17:51;101018.0;;;20.11;57.18
67430;BME280;54298;52.076;5.264;2023-07-16T08:21:04;101025.0;;;20.2;56.9
67430;BME280;54298;52.076;5.264;2023-07-16T08:22:40;101014.0;;;20.09;56.96
67430;BME280;54298;52.076;5.264;2023-07-16T08:24:17;101016.0;;;20.31;57.03
67430;BME280;54298;52.076;5.264;2023-07-16T08:25:53;101021.0;;;20.32;56.64
67430;BME280;54298;52.076;5.264;2023-07-16T08:29:07;101035.0;;;20.31;56.44
67430;BME280;54298;52.076;5.264;2023-07-16T08:30:46;101030.0;;;20.32;56.67
67430;BME280;54298;52.076;5.264;2023-07-16T08:32:22;101027.0;;;20.2;56.48
67430;BME280;54298;52.076;5.264;2023-07-16T08:35:35;101040.0;;;20.25;56.61
67430;BME280;54298;52.076;5.264;2023-07-16T08:37:12;101044.0;;;20.23;56.66
67430;BME280;54298;52.076;5.264;2023-07-16T08:38:49;101040.0;;;20.27;56.74
67430;BME280;54298;52.076;5.264;2023-07-16T08:40:26;101042.0;;;20.18;56.88
67430;BME280;54298;52.076;5.264;2023-07-16T08:43:40;101047.0;;;20.03;57.2
67430;BME280;54298;52.076;5.264;2023-07-16T08:45:19;101043.0;;;20.18;57.07
67430;BME280;54298;52.076;5.264;2023-07-16T08:46:57;101032.0;;;20.23;57.11
67430;BME280;54298;52.076;5.264;2023-07-16T08:50:11;101061.0;;;20.27;56.99
67430;BME280;54298;52.076;5.264;2023-07-16T08:51:49;101050.0;;;20.21;57.16
67430;BME280;54298;52.076;5.264;2023-07-16T08:53:25;101049.0;;;20.09;57.46
67430;BME280;54298;52.076;5.264;2023-07-16T08:56:40;101055.0;;;20.25;57.47
67430;BME280;54298;52.076;5.264;2023-07-16T08:58:17;101051.0;;;20.3;57.12
67430;BME280;54298;52.076;5.264;2023-07-16T08:59:55;101055.0;;;20.27;57.12
67430;BME280;54298;52.076;5.264;2023-07-16T09:01:32;101059.0;;;20.28;57.23
67430;BME280;54298;52.076;5.264;2023-07-16T09:04:48;101051.0;;;20.45;57.13
67430;BME280;54298;52.076;5.264;2023-07-16T09:06:26;101065.0;;;20.51;56.76
67430;BME280;54298;52.076;5.264;2023-07-16T09:08:03;101059.0;;;20.59;56.58
67430;BME280;54298;52.076;5.264;2023-07-16T09:11:17;101059.0;;;20.83;56.33
67430;BME280;54298;52.076;5.264;2023-07-16T09:12:57;101055.0;;;20.95;55.98
67430;BME280;54298;52.076;5.264;2023-07-16T09:14:34;101070.0;;;20.7;55.61
67430;BME280;54298;52.076;5.264;2023-07-16T09:16:10;101071.0;;;20.9;55.22
67430;BME280;54298;52.076;5.264;2023-07-16T09:19:25;101073.0;;;20.58;55.6
67430;BME280;54298;52.076;5.264;2023-07-16T09:21:01;101072.0;;;20.63;55.8
67430;BME280;54298;52.076;5.264;2023-07-16T09:22:38;101078.0;;;20.57;55.9
67430;BME280;54298;52.076;5.264;2023-07-16T09:25:53;101078.0;;;20.66;55.67
67430;BME280;54298;52.076;5.264;2023-07-16T09:27:30;101071.0;;;20.56;55.78
67430;BME280;54298;52.076;5.264;2023-07-16T09:29:07;101076.0;;;20.69;55.58
67430;BME280;54298;52.076;5.264;2023-07-16T09:30:43;101073.0;;;20.76;55.53
67430;BME280;54298;52.076;5.264;2023-07-16T09:33:57;101057.0;;;20.91;55.38
67430;BME280;54298;52.076;5.264;2023-07-16T09:35:35;101075.0;;;21.09;54.88
67430;BME280;54298;52.076;5.264;2023-07-16T09:37:12;101073.0;;;21.06;55.05
67430;BME280;54298;52.076;5.264;2023-07-16T09:40:26;101083.0;;;21.06;55.14
67430;BME280;54298;52.076;5.264;2023-07-16T09:42:04;101081.0;;;21.14;54.63
67430;BME280;54298;52.076;5.264;2023-07-16T09:43:43;101089.0;;;21.27;54.28
67430;BME280;54298;52.076;5.264;2023-07-16T09:45:19;101086.0;;;21.18;54.3
67430;BME280;54298;52.076;5.264;2023-07-16T09:48:34;101091.0;;;20.97;54.51
67430;BME280;54298;52.076;5.264;2023-07-16T09:50:11;101098.0;;;21.06;54.86
67430;BME280;54298;52.076;5.264;2023-07-16T09:51:48;101096.0;;;21.08;54.87
67430;BME280;54298;52.076;5.264;2023-07-16T09:55:09;101101.0;;;21.07;54.83
67430;BME280;54298;52.076;5.264;2023-07-16T09:56:48;101095.0;;;21.11;55.07
67430;BME280;54298;52.076;5.264;2023-07-16T09:58:26;101097.0;;;21.15;55.26
67430;BME280;54298;52.076;5.264;2023-07-16T10:00:06;101105.0;;;21.21;55.2
67430;BME280;54298;52.076;5.264;2023-07-16T10:03:22;101107.0;;;21.09;55.06
67430;BME280;54298;52.076;5.264;2023-07-16T10:05:00;101103.0;;;21.22;54.7
67430;BME280;54298;52.076;5.264;2023-07-16T10:06:50;101112.0;;;21.21;54.78
67430;BME280;54298;52.076;5.264;2023-07-16T10:08:34;101106.0;;;21.23;54.54
67430;BME280;54298;52.076;5.264;2023-07-16T10:11:47;101098.0;;;21.29;54.36
67430;BME280;54298;52.076;5.264;2023-07-16T10:13:24;101106.0;;;21.45;54.59
67430;BME280;54298;52.076;5.264;2023-07-16T10:15:02;101102.0;;;21.46;54.11
67430;BME280;54298;52.076;5.264;2023-07-16T10:16:38;101096.0;;;21.55;54.04
67430;BME280;54298;52.076;5.264;2023-07-16T10:20:00;101108.0;;;21.51;53.89
67430;BME280;54298;52.076;5.264;2023-07-16T10:21:38;101109.0;;;21.55;53.87
67430;BME280;54298;52.076;5.264;2023-07-16T10:23:15;101124.0;;;21.43;53.99
67430;BME280;54298;52.076;5.264;2023-07-16T10:26:30;101131.0;;;21.23;54.09
67430;BME280;54298;52.076;5.264;2023-07-16T10:28:08;101132.0;;;21.23;54.37
67430;BME280;54298;52.076;5.264;2023-07-16T10:29:45;101127.0;;;21.02;54.49
67430;BME280;54298;52.076;5.264;2023-07-16T10:31:22;101140.0;;;20.88;54.76
67430;BME280;54298;52.076;5.264;2023-07-16T10:34:39;101137.0;;;20.93;54.87
67430;BME280;54298;52.076;5.264;2023-07-16T10:36:18;101132.0;;;21.04;54.85
67430;BME280;54298;52.076;5.264;2023-07-16T10:37:55;101140.0;;;21.14;54.42
67430;BME280;54298;52.076;5.264;2023-07-16T10:41:08;101136.0;;;21.25;54.0
67430;BME280;54298;52.076;5.264;2023-07-16T10:42:45;101136.0;;;21.26;54.23
67430;BME280;54298;52.076;5.264;2023-07-16T10:44:22;101148.0;;;21.25;54.44
67430;BME280;54298;52.076;5.264;2023-07-16T10:45:59;101145.0;;;21.31;54.64
67430;BME280;54298;52.076;5.264;2023-07-16T10:49:13;101145.0;;;21.36;54.56
67430;BME280;54298;52.076;5.264;2023-07-16T10:50:53;101145.0;;;21.44;53.95
67430;BME280;54298;52.076;5.264;2023-07-16T10:52:29;101144.0;;;21.37;53.9
67430;BME280;54298;52.076;5.264;2023-07-16T10:55:43;101156.0;;;21.38;54.13
67430;BME280;54298;52.076;5.264;2023-07-16T10:57:20;101156.0;;;21.29;54.65
67430;BME280;54298;52.076;5.264;2023-07-16T10:58:57;101162.0;;;21.18;54.67
67430;BME280;54298;52.076;5.264;2023-07-16T11:02:16;101163.0;;;21.25;54.81
67430;BME280;54298;52.076;5.264;2023-07-16T11:03:52;101162.0;;;21.59;54.44
67430;BME280;54298;52.076;5.264;2023-07-16T11:05:28;101187.0;;;21.57;54.19
67430;BME280;54298;52.076;5.264;2023-07-16T11:07:06;101167.0;;;21.53;53.81
67430;BME280;54298;52.076;5.264;2023-07-16T11:10:20;101166.0;;;21.61;53.89
67430;BME280;54298;52.076;5.264;2023-07-16T11:12:05;101177.0;;;21.48;54.33